createdAt,value
2023-02-27T00:00:21.676Z,-3.20
2023-02-27T00:02:53.649Z,-3.20
2023-02-27T00:05:25.219Z,-3.20
2023-02-27T00:07:55.433Z,-3.20
2023-02-27T00:10:27.953Z,-3.20
2023-02-27T00:12:57.942Z,-3.20
2023-02-27T00:15:30.840Z,-3.20
2023-02-27T00:18:01.022Z,-3.20
2023-02-27T00:20:32.278Z,-3.20
2023-02-27T00:23:02.216Z,-3.20
2023-02-27T00:25:35.100Z,-3.20
2023-02-27T00:28:05.702Z,-3.20
2023-02-27T00:30:35.862Z,-3.20
2023-02-27T00:33:06.596Z,-3.20
2023-02-27T00:35:36.608Z,-3.30
2023-02-27T00:38:06.695Z,-3.30
2023-02-27T00:40:39.366Z,-3.30
2023-02-27T00:43:09.334Z,-3.40
2023-02-27T00:45:39.294Z,-3.30
2023-02-27T00:48:09.239Z,-3.30
2023-02-27T00:50:39.117Z,-3.40
2023-02-27T00:53:09.145Z,-3.40
2023-02-27T00:55:41.662Z,-3.20
2023-02-27T00:58:12.910Z,-3.30
2023-02-27T01:00:43.232Z,-3.50
2023-02-27T01:03:13.237Z,-3.60
2023-02-27T01:05:43.160Z,-3.50
2023-02-27T01:08:13.058Z,-3.50
2023-02-27T01:10:45.575Z,-3.50
2023-02-27T01:13:15.570Z,-3.30
2023-02-27T01:15:45.509Z,-3.40
2023-02-27T01:18:15.686Z,-3.60
2023-02-27T01:20:45.648Z,-3.40
2023-02-27T01:25:49.798Z,-3.50
2023-02-27T01:28:19.877Z,-3.60
2023-02-27T01:30:50.135Z,-3.50
2023-02-27T01:33:20.431Z,-3.50
2023-02-27T01:35:50.354Z,-4.30
2023-02-27T01:38:20.319Z,-4.00
2023-02-27T01:40:52.803Z,-3.40
2023-02-27T01:43:25.025Z,-3.50
2023-02-27T01:45:56.461Z,-3.40
2023-02-27T01:48:30.786Z,-3.60
2023-02-27T01:51:04.968Z,-3.50
2023-02-27T01:53:38.071Z,-3.10
2023-02-27T01:56:15.255Z,-3.10
2023-02-27T01:58:46.540Z,-3.60
2023-02-27T02:01:16.991Z,-3.60
2023-02-27T02:03:51.864Z,-3.60
2023-02-27T02:06:21.810Z,-3.60
2023-02-27T02:08:54.130Z,-3.60
2023-02-27T02:11:28.964Z,-3.70
2023-02-27T02:14:02.682Z,-3.70
2023-02-27T02:16:54.715Z,-3.70
2023-02-27T02:19:55.882Z,-3.30
2023-02-27T02:23:17.422Z,-3.80
2023-02-27T02:26:21.136Z,-3.80
2023-02-27T02:29:45.762Z,-3.80
2023-02-27T02:33:01.225Z,-3.90
2023-02-27T02:36:22.035Z,-4.00
2023-02-27T02:39:11.869Z,-4.10
2023-02-27T02:42:00.065Z,-4.20
2023-02-27T02:44:41.138Z,-3.30
2023-02-27T02:47:19.685Z,-3.90
2023-02-27T02:49:59.645Z,-3.50
2023-02-27T02:52:39.735Z,-3.60
2023-02-27T02:55:16.638Z,-3.70
2023-02-27T02:57:51.529Z,-4.40
2023-02-27T03:00:25.623Z,-3.50
2023-02-27T03:02:59.622Z,-4.40
2023-02-27T03:05:35.628Z,-3.90
2023-02-27T03:08:09.091Z,-4.50
2023-02-27T03:10:46.389Z,-4.30
2023-02-27T03:13:24.757Z,-3.80
2023-02-27T03:15:59.501Z,-3.30
2023-02-27T03:18:35.487Z,-4.40
2023-02-27T03:21:10.991Z,-4.40
2023-02-27T03:23:45.844Z,-4.40
2023-02-27T03:26:23.061Z,-4.20
2023-02-27T03:28:58.596Z,-3.80
2023-02-27T03:31:35.831Z,-3.60
2023-02-27T03:34:13.699Z,-4.60
2023-02-27T03:36:50.107Z,-3.10
2023-02-27T03:39:28.625Z,-4.30
2023-02-27T03:42:06.810Z,-4.70
2023-02-27T03:45:06.368Z,-3.80
2023-02-27T03:47:37.774Z,-4.80
2023-02-27T03:50:09.183Z,-3.20
2023-02-27T03:52:39.451Z,-4.80
2023-02-27T03:55:15.210Z,-3.90
2023-02-27T03:57:50.324Z,-4.70
2023-02-27T04:00:22.730Z,-4.00
2023-02-27T04:02:55.411Z,-4.50
2023-02-27T04:05:29.060Z,-3.60
2023-02-27T04:08:33.288Z,-4.80
2023-02-27T04:11:18.808Z,-4.90
2023-02-27T04:14:08.118Z,-3.80
2023-02-27T04:17:19.793Z,-5.00
2023-02-27T04:20:13.540Z,-5.10
2023-02-27T04:22:50.198Z,-5.10
2023-02-27T04:25:29.798Z,-4.60
2023-02-27T04:28:07.029Z,-5.20
2023-02-27T04:30:48.583Z,-3.80
2023-02-27T04:33:28.169Z,-3.70
2023-02-27T04:36:02.139Z,-4.50
2023-02-27T04:38:38.068Z,-2.70
2023-02-27T04:41:13.101Z,-5.10
2023-02-27T04:43:45.740Z,-3.80
2023-02-27T04:46:21.178Z,-3.60
2023-02-27T04:48:55.949Z,-3.70
2023-02-27T04:51:29.666Z,-3.20
2023-02-27T04:54:04.532Z,-3.50
2023-02-27T04:56:37.901Z,-4.30
2023-02-27T04:59:12.240Z,-4.30
2023-02-27T05:01:49.868Z,-4.80
2023-02-27T05:04:23.920Z,-4.30
2023-02-27T05:06:56.215Z,-3.70
2023-02-27T05:09:34.437Z,-4.50
2023-02-27T05:12:08.795Z,-4.30
2023-02-27T05:14:39.786Z,-5.20
2023-02-27T05:17:18.299Z,-5.40
2023-02-27T05:19:49.591Z,-4.50
2023-02-27T05:22:30.892Z,-3.60
2023-02-27T05:25:11.815Z,-3.90
2023-02-27T05:27:47.082Z,-5.50
2023-02-27T05:30:26.201Z,-5.20
2023-02-27T05:33:04.688Z,-5.40
2023-02-27T05:35:40.429Z,-5.30
2023-02-27T05:38:18.432Z,-4.40
2023-02-27T05:40:52.191Z,-4.40
2023-02-27T05:43:25.264Z,-5.30
2023-02-27T05:46:01.177Z,-3.50
2023-02-27T05:48:38.196Z,-3.80
2023-02-27T05:51:10.937Z,-3.50
2023-02-27T05:53:45.905Z,-5.20
2023-02-27T05:56:19.214Z,-5.20
2023-02-27T05:58:54.240Z,-3.20
2023-02-27T06:01:24.601Z,-3.70
2023-02-27T06:03:57.822Z,-4.20
2023-02-27T06:06:28.217Z,-3.60
2023-02-27T06:08:58.301Z,-4.10
2023-02-27T06:11:28.584Z,-5.50
2023-02-27T06:13:58.468Z,-4.70
2023-02-27T06:16:28.795Z,-5.50
2023-02-27T06:19:04.838Z,-5.60
2023-02-27T06:21:35.011Z,-3.10
2023-02-27T06:24:04.874Z,-5.50
2023-02-27T06:26:34.973Z,-5.30
2023-02-27T06:29:05.514Z,-5.50
2023-02-27T06:31:35.560Z,-5.10
2023-02-27T06:34:08.197Z,-5.40
2023-02-27T06:36:38.145Z,-4.10
2023-02-27T06:39:08.635Z,-5.50
2023-02-27T06:41:38.621Z,-5.30
2023-02-27T06:44:08.590Z,-5.60
2023-02-27T06:46:38.583Z,-5.00
2023-02-27T06:49:11.384Z,-3.80
2023-02-27T06:51:41.613Z,-3.40
2023-02-27T06:54:12.312Z,-3.70
2023-02-27T06:56:42.205Z,-3.30
2023-02-27T06:59:12.176Z,-5.50
2023-02-27T07:01:42.217Z,-5.30
2023-02-27T07:04:16.750Z,-5.00
2023-02-27T07:07:36.212Z,-4.40
2023-02-27T07:09:37.096Z,-3.40
2023-02-27T07:12:08.033Z,-3.40
2023-02-27T07:14:38.248Z,-4.80
2023-02-27T07:17:08.229Z,-3.50
2023-02-27T07:19:40.701Z,-3.40
2023-02-27T07:22:11.309Z,-3.70
2023-02-27T07:24:42.017Z,-4.10
2023-02-27T07:27:11.984Z,-3.40
2023-02-27T07:29:42.297Z,-4.00
2023-02-27T07:32:12.645Z,-3.00
2023-02-27T07:34:45.203Z,-4.20
2023-02-27T07:37:15.303Z,-3.50
2023-02-27T07:39:45.222Z,-3.30
2023-02-27T07:42:15.448Z,-3.20
2023-02-27T07:44:45.371Z,-3.50
2023-02-27T07:47:15.322Z,-3.40
2023-02-27T07:49:47.789Z,-3.90
2023-02-27T07:52:17.718Z,-3.50
2023-02-27T07:54:47.773Z,-3.80
2023-02-27T07:59:48.489Z,-3.60
2023-02-27T08:02:18.645Z,-3.60
2023-02-27T08:04:51.868Z,-3.20
2023-02-27T08:07:21.857Z,-3.30
2023-02-27T08:09:51.784Z,-3.20
2023-02-27T08:12:22.292Z,-3.20
2023-02-27T08:14:52.638Z,-3.20
2023-02-27T08:17:22.801Z,-3.10
2023-02-27T08:19:55.292Z,-2.80
2023-02-27T08:22:25.166Z,-3.10
2023-02-27T08:24:55.026Z,-2.70
2023-02-27T08:27:25.033Z,-2.70
2023-02-27T08:29:54.962Z,-2.70
2023-02-27T08:32:25.102Z,-2.60
2023-02-27T08:34:57.654Z,-2.20
2023-02-27T08:37:27.773Z,-2.50
2023-02-27T08:39:58.035Z,-1.00
2023-02-27T08:42:28.059Z,-2.70
2023-02-27T08:44:58.594Z,-2.40
2023-02-27T08:47:28.586Z,-2.60
2023-02-27T08:50:01.078Z,-2.30
2023-02-27T08:55:01.318Z,-2.20
2023-02-27T08:57:31.323Z,-2.20
2023-02-27T09:02:32.120Z,-2.10
2023-02-27T09:05:04.684Z,-2.00
2023-02-27T09:07:34.652Z,-1.80
2023-02-27T09:10:04.670Z,-1.70
2023-02-27T09:12:34.587Z,-1.40
2023-02-27T09:15:05.432Z,-1.60
2023-02-27T09:17:35.385Z,-1.50
2023-02-27T09:20:09.735Z,-1.70
2023-02-27T09:22:40.096Z,-1.50
2023-02-27T09:25:10.617Z,-1.50
2023-02-27T09:27:40.503Z,-1.40
2023-02-27T09:30:12.820Z,-1.30
2023-02-27T09:32:42.840Z,-1.30
2023-02-27T09:35:16.052Z,-1.30
2023-02-27T09:37:46.665Z,-1.40
2023-02-27T09:40:22.251Z,-1.30
2023-02-27T09:42:53.140Z,-1.30
2023-02-27T09:45:27.150Z,-0.80
2023-02-27T09:48:01.665Z,-0.70
2023-02-27T09:50:41.552Z,-0.80
2023-02-27T09:53:16.273Z,-0.70
2023-02-27T09:55:48.554Z,-0.60
2023-02-27T09:58:32.591Z,-0.20
2023-02-27T10:01:10.097Z,-0.30
2023-02-27T10:04:16.314Z,-0.30
2023-02-27T10:06:52.873Z,-0.10
2023-02-27T10:09:39.134Z,-0.30
2023-02-27T10:12:21.879Z,-0.40
2023-02-27T10:14:56.734Z,-0.40
2023-02-27T10:17:30.664Z,-0.50
2023-02-27T10:20:03.738Z,-0.30
2023-02-27T10:22:39.853Z,-0.30
2023-02-27T10:25:29.772Z,-0.30
2023-02-27T10:28:11.538Z,-0.10
2023-02-27T10:30:42.116Z,-0.20
2023-02-27T10:33:16.700Z,-0.30
2023-02-27T10:35:47.729Z,-0.30
2023-02-27T10:38:26.999Z,0.00
2023-02-27T10:40:58.351Z,-0.20
2023-02-27T10:43:28.712Z,3.30
2023-02-27T10:45:59.124Z,-0.20
2023-02-27T10:48:29.020Z,-0.10
2023-02-27T10:51:23.673Z,0.00
2023-02-27T10:54:18.705Z,0.00
2023-02-27T10:56:52.309Z,0.00
2023-02-27T10:59:25.110Z,0.10
2023-02-27T11:01:57.792Z,0.00
2023-02-27T11:04:32.286Z,0.10
2023-02-27T11:07:02.987Z,0.30
2023-02-27T11:09:36.656Z,0.20
2023-02-27T11:12:25.228Z,0.50
2023-02-27T11:14:56.986Z,0.60
2023-02-27T11:17:32.253Z,0.60
2023-02-27T11:20:06.092Z,0.40
2023-02-27T11:22:36.457Z,0.50
2023-02-27T11:25:25.649Z,0.30
2023-02-27T11:28:14.192Z,0.40
2023-02-27T11:30:46.032Z,0.60
2023-02-27T11:33:22.579Z,1.10
2023-02-27T11:35:57.999Z,1.30
2023-02-27T11:38:31.703Z,1.10
2023-02-27T11:41:06.586Z,0.90
2023-02-27T11:43:40.132Z,1.00
2023-02-27T11:46:47.070Z,1.40
2023-02-27T11:49:16.334Z,0.90
2023-02-27T11:51:58.906Z,0.80
2023-02-27T11:54:38.874Z,0.90
2023-02-27T11:57:21.032Z,0.90
2023-02-27T11:59:55.591Z,1.00
2023-02-27T12:02:38.365Z,0.90
2023-02-27T12:05:17.786Z,0.90
2023-02-27T12:07:54.404Z,1.00
2023-02-27T12:10:27.648Z,1.00
2023-02-27T12:13:05.949Z,1.00
2023-02-27T12:15:44.883Z,0.90
2023-02-27T12:18:21.113Z,0.90
2023-02-27T12:20:57.590Z,1.10
2023-02-27T12:23:34.615Z,1.30
2023-02-27T12:26:09.259Z,1.70
2023-02-27T12:28:50.795Z,2.10
2023-02-27T12:31:35.104Z,2.20
2023-02-27T12:34:12.090Z,2.10
2023-02-27T12:36:41.984Z,2.10
2023-02-27T12:39:19.861Z,1.90
2023-02-27T12:42:07.556Z,1.70
2023-02-27T12:44:58.308Z,1.50
2023-02-27T12:47:37.958Z,1.20
2023-02-27T12:50:13.696Z,3.70
2023-02-27T12:52:59.169Z,1.00
2023-02-27T12:55:31.423Z,1.50
2023-02-27T12:58:28.186Z,2.20
2023-02-27T13:01:04.175Z,2.10
2023-02-27T13:03:42.178Z,2.60
2023-02-27T13:06:19.838Z,2.90
2023-02-27T13:09:23.587Z,3.00
2023-02-27T13:12:06.270Z,3.20
2023-02-27T13:14:49.204Z,2.90
2023-02-27T13:17:29.684Z,3.50
2023-02-27T13:20:04.756Z,4.10
2023-02-27T13:22:41.662Z,4.30
2023-02-27T13:25:16.029Z,4.60
2023-02-27T13:27:49.517Z,4.80
2023-02-27T13:30:27.206Z,4.40
2023-02-27T13:33:10.781Z,4.70
2023-02-27T13:35:50.620Z,5.00
2023-02-27T13:38:44.149Z,4.50
2023-02-27T13:41:39.765Z,4.80
2023-02-27T13:44:52.017Z,5.10
2023-02-27T13:47:43.898Z,5.30
2023-02-27T13:50:43.945Z,5.40
2023-02-27T13:53:24.682Z,5.20
2023-02-27T13:56:18.715Z,5.40
2023-02-27T13:58:49.215Z,7.40
2023-02-27T14:01:21.609Z,5.40
2023-02-27T14:04:00.470Z,5.70
2023-02-27T14:06:32.019Z,5.00
2023-02-27T14:09:14.898Z,4.60
2023-02-27T14:11:55.823Z,4.00
2023-02-27T14:14:44.433Z,3.30
2023-02-27T14:17:16.062Z,2.80
2023-02-27T14:20:05.324Z,2.30
2023-02-27T14:23:08.195Z,2.40
2023-02-27T14:25:43.114Z,2.30
2023-02-27T14:28:24.682Z,2.90
2023-02-27T14:30:58.315Z,2.90
2023-02-27T14:33:40.038Z,3.30
2023-02-27T14:36:18.181Z,3.20
2023-02-27T14:38:48.293Z,3.20
2023-02-27T14:41:35.601Z,3.40
2023-02-27T14:44:06.712Z,2.90
2023-02-27T14:46:40.120Z,2.50
2023-02-27T14:49:19.795Z,2.40
2023-02-27T14:51:50.606Z,2.40
2023-02-27T14:54:23.453Z,2.50
2023-02-27T14:57:00.682Z,2.40
2023-02-27T14:59:34.003Z,2.60
2023-02-27T15:02:05.192Z,2.70
2023-02-27T15:04:36.220Z,2.60
2023-02-27T15:09:42.922Z,2.40
2023-02-27T15:12:21.293Z,2.20
2023-02-27T15:14:54.601Z,2.00
2023-02-27T15:17:26.249Z,2.10
2023-02-27T15:19:58.108Z,1.90
2023-02-27T15:22:39.021Z,1.90
2023-02-27T15:25:28.653Z,1.50
2023-02-27T15:28:05.477Z,1.50
2023-02-27T15:30:35.871Z,1.50
2023-02-27T15:33:07.047Z,1.50
2023-02-27T15:35:40.628Z,1.50
2023-02-27T15:38:25.495Z,1.50
2023-02-27T15:40:55.797Z,1.40
2023-02-27T15:43:30.375Z,1.40
2023-02-27T15:46:01.017Z,1.40
2023-02-27T15:48:31.592Z,1.30
2023-02-27T15:51:05.124Z,1.20
2023-02-27T15:53:35.243Z,1.10
2023-02-27T15:56:09.566Z,0.90
2023-02-27T15:58:50.723Z,0.90
2023-02-27T16:01:23.306Z,0.70
2023-02-27T16:03:55.971Z,0.90
2023-02-27T16:06:29.620Z,0.60
2023-02-27T16:09:02.183Z,0.50
2023-02-27T16:11:34.114Z,0.40
2023-02-27T16:14:08.564Z,0.40
2023-02-27T16:16:39.544Z,0.40
2023-02-27T16:19:18.972Z,0.20
2023-02-27T16:22:08.230Z,0.10
2023-02-27T16:24:39.090Z,0.10
2023-02-27T16:27:09.570Z,0.00
2023-02-27T16:29:46.349Z,-0.10
2023-02-27T16:32:26.551Z,0.00
2023-02-27T16:35:04.763Z,-0.10
2023-02-27T16:37:39.486Z,-0.10
2023-02-27T16:40:16.986Z,-0.40
2023-02-27T16:42:47.692Z,-0.30
2023-02-27T16:45:22.682Z,-0.50
2023-02-27T16:47:55.022Z,-0.60
2023-02-27T16:50:27.694Z,-0.70
2023-02-27T16:52:57.982Z,-0.80
2023-02-27T16:55:28.741Z,-0.50
2023-02-27T16:57:58.616Z,-0.90
2023-02-27T17:00:31.231Z,0.30
2023-02-27T17:03:01.176Z,-1.00
2023-02-27T17:05:31.232Z,-1.00
2023-02-27T17:08:01.164Z,-1.20
2023-02-27T17:10:31.054Z,-1.30
2023-02-27T17:13:00.977Z,-1.30
2023-02-27T17:15:33.484Z,-1.40
2023-02-27T17:18:03.393Z,-1.50
2023-02-27T17:20:33.373Z,-1.50
2023-02-27T17:23:03.520Z,-1.60
2023-02-27T17:25:33.468Z,-1.60
2023-02-27T17:28:03.516Z,-1.70
2023-02-27T17:30:36.221Z,-1.70
2023-02-27T17:33:06.494Z,-1.70
2023-02-27T17:35:36.484Z,-1.70
2023-02-27T17:38:07.530Z,-1.70
2023-02-27T17:40:39.519Z,-1.70
2023-02-27T17:43:09.467Z,-1.70
2023-02-27T17:45:42.253Z,-1.60
2023-02-27T17:48:12.793Z,-1.60
2023-02-27T17:50:44.957Z,-1.60
2023-02-27T17:53:15.715Z,-1.70
2023-02-27T17:55:45.748Z,-1.60
2023-02-27T17:58:18.775Z,-1.70
2023-02-27T18:00:51.569Z,-1.70
2023-02-27T18:03:21.452Z,-1.80
2023-02-27T18:05:53.285Z,-2.40
2023-02-27T18:08:23.218Z,-1.80
2023-02-27T18:10:54.432Z,-1.90
2023-02-27T18:13:25.752Z,-1.90
2023-02-27T18:15:59.022Z,-2.00
2023-02-27T18:18:28.878Z,-2.10
2023-02-27T18:21:05.283Z,-2.10
2023-02-27T18:23:35.467Z,-2.10
2023-02-27T18:26:05.651Z,-2.10
2023-02-27T18:28:35.925Z,-2.10
2023-02-27T18:31:08.406Z,-2.10
2023-02-27T18:33:38.376Z,-2.10
2023-02-27T18:36:09.193Z,-2.20
2023-02-27T18:38:39.197Z,-2.20
2023-02-27T18:41:09.568Z,-2.20
2023-02-27T18:43:39.716Z,-2.10
2023-02-27T18:46:12.909Z,-2.10
2023-02-27T18:48:43.098Z,-2.00
2023-02-27T18:51:15.666Z,-2.00
2023-02-27T18:53:48.148Z,-1.90
2023-02-27T18:56:20.964Z,-1.90
2023-02-27T18:58:51.153Z,-2.40
2023-02-27T19:01:26.008Z,-2.00
2023-02-27T19:04:03.300Z,-2.00
2023-02-27T19:06:34.017Z,-2.10
2023-02-27T19:09:04.064Z,-2.10
2023-02-27T19:11:35.922Z,-2.20
2023-02-27T19:14:07.702Z,-2.20
2023-02-27T19:16:40.480Z,-2.20
2023-02-27T19:19:10.408Z,-2.30
2023-02-27T19:21:41.732Z,-2.30
2023-02-27T19:24:12.681Z,-1.40
2023-02-27T19:26:42.868Z,-2.30
2023-02-27T19:29:12.824Z,-2.40
2023-02-27T19:31:45.585Z,-2.40
2023-02-27T19:34:15.678Z,-2.40
2023-02-27T19:36:45.614Z,-2.50
2023-02-27T19:39:15.519Z,-2.40
2023-02-27T19:41:45.945Z,-2.40
2023-02-27T19:44:15.923Z,-2.30
2023-02-27T19:46:51.457Z,-2.30
2023-02-27T19:49:22.100Z,-2.40
2023-02-27T19:51:53.179Z,-2.40
2023-02-27T19:54:24.144Z,-2.40
2023-02-27T19:56:54.464Z,-2.50
2023-02-27T19:59:24.726Z,-2.50
2023-02-27T20:01:58.070Z,-2.50
2023-02-27T20:04:28.183Z,-2.60
2023-02-27T20:06:58.386Z,-2.60
2023-02-27T20:09:28.480Z,-2.70
2023-02-27T20:12:00.659Z,-2.70
2023-02-27T20:14:32.734Z,-2.70
2023-02-27T20:17:05.284Z,-2.80
2023-02-27T20:19:36.548Z,-2.80
2023-02-27T20:22:06.852Z,-2.70
2023-02-27T20:24:36.766Z,-2.80
2023-02-27T20:27:07.351Z,-2.90
2023-02-27T20:29:37.244Z,-2.90
2023-02-27T20:32:10.892Z,-2.90
2023-02-27T20:34:41.207Z,-2.90
2023-02-27T20:37:11.177Z,-2.80
2023-02-27T20:39:43.353Z,-3.00
2023-02-27T20:42:14.171Z,-2.90
2023-02-27T20:44:45.064Z,-3.00
2023-02-27T20:47:17.800Z,-3.00
2023-02-27T20:49:47.994Z,-3.10
2023-02-27T20:52:17.918Z,-3.20
2023-02-27T20:54:47.838Z,-3.10
2023-02-27T20:57:17.788Z,-3.20
2023-02-27T20:59:50.331Z,-3.30
2023-02-27T21:02:22.898Z,-3.20
2023-02-27T21:04:54.029Z,-3.30
2023-02-27T21:07:24.410Z,-3.30
2023-02-27T21:09:54.462Z,-3.30
2023-02-27T21:12:24.476Z,-3.30
2023-02-27T21:14:54.433Z,-3.30
2023-02-27T21:17:27.100Z,-3.30
2023-02-27T21:22:27.386Z,-3.30
2023-02-27T21:27:27.857Z,-3.30
2023-02-27T21:32:30.647Z,-3.30
2023-02-27T21:35:00.663Z,-3.40
2023-02-27T21:37:30.623Z,-3.30
2023-02-27T21:42:32.678Z,-3.30
2023-02-27T21:45:02.655Z,-3.40
2023-02-27T21:50:14.168Z,-3.30
2023-02-27T21:55:16.146Z,-3.40
2023-02-27T21:57:46.178Z,-3.40
2023-02-27T22:00:16.643Z,-3.40
2023-02-27T22:02:49.369Z,-3.40
2023-02-27T22:15:20.387Z,-3.50
2023-02-27T22:17:54.792Z,-3.50
2023-02-27T22:20:24.508Z,-3.50
2023-02-27T22:22:54.461Z,-3.50
2023-02-27T22:25:24.449Z,-3.40
2023-02-27T22:30:24.799Z,-3.60
2023-02-27T22:32:57.697Z,-3.60
2023-02-27T22:45:29.893Z,-3.70
2023-02-27T22:48:02.399Z,-3.70
2023-02-27T22:50:32.494Z,-3.70
2023-02-27T22:55:32.600Z,-3.80
2023-02-27T22:58:02.586Z,-3.20
2023-02-27T23:18:12.380Z,-3.70
2023-02-27T23:20:42.760Z,-3.30
2023-02-27T23:25:43.579Z,-3.80
2023-02-27T23:28:13.869Z,-3.90
2023-02-27T23:30:43.741Z,-3.90
2023-02-27T23:33:16.334Z,-3.90
2023-02-27T23:35:46.285Z,-3.80
2023-02-27T23:40:46.627Z,-3.90
2023-02-27T23:43:30.193Z,-3.90
2023-02-27T23:46:01.327Z,-3.90
2023-02-27T23:48:33.906Z,-3.90
2023-02-27T23:51:04.836Z,-3.90
2023-02-27T23:53:36.353Z,-3.90
2023-02-27T23:56:15.318Z,-3.90
